createdAt,value
2018-11-20T00:02:42.075Z,67.57
2018-11-20T00:05:42.456Z,66.68
2018-11-20T00:08:28.458Z,66.45
2018-11-20T00:11:15.769Z,66.16
2018-11-20T00:14:07.312Z,66.60
2018-11-20T00:17:05.156Z,67.22
2018-11-20T00:19:54.315Z,67.20
2018-11-20T00:22:38.016Z,65.94
2018-11-20T00:25:38.930Z,65.83
2018-11-20T00:28:34.983Z,65.70
2018-11-20T00:31:38.818Z,65.87
2018-11-20T00:34:27.421Z,65.46
2018-11-20T00:37:08.431Z,65.53
2018-11-20T00:39:52.108Z,65.44
2018-11-20T00:42:45.568Z,65.11
2018-11-20T00:45:33.331Z,65.42
2018-11-20T00:48:24.577Z,64.99
2018-11-20T00:51:22.476Z,65.06
2018-11-20T00:54:09.681Z,65.18
2018-11-20T00:57:16.516Z,65.69
2018-11-20T01:00:16.948Z,66.03
2018-11-20T01:03:04.066Z,66.83
2018-11-20T01:05:48.760Z,66.28
2018-11-20T01:08:49.010Z,67.14
2018-11-20T01:11:43.262Z,67.71
2018-11-20T01:14:37.449Z,67.96
2018-11-20T01:17:44.381Z,68.35
2018-11-20T01:20:35.621Z,68.35
2018-11-20T01:23:22.597Z,69.23
2018-11-20T01:26:00.021Z,67.74
2018-11-20T01:28:46.980Z,67.74
2018-11-20T01:31:35.834Z,67.58
2018-11-20T01:34:27.473Z,67.24
2018-11-20T01:37:17.952Z,67.38
2018-11-20T01:40:06.510Z,67.09
2018-11-20T01:43:00.970Z,67.09
2018-11-20T01:45:52.525Z,67.81
2018-11-20T01:48:40.989Z,68.07
2018-11-20T01:51:41.240Z,68.00
2018-11-20T01:54:28.677Z,68.46
2018-11-20T01:57:11.723Z,68.75
2018-11-20T01:59:58.634Z,68.94
2018-11-20T02:02:52.222Z,69.07
2018-11-20T02:05:56.177Z,69.27
2018-11-20T02:08:43.655Z,68.72
2018-11-20T02:11:32.381Z,68.20
2018-11-20T02:14:25.174Z,67.91
2018-11-20T02:17:26.612Z,67.76
2018-11-20T02:20:30.322Z,68.01
2018-11-20T02:23:17.361Z,68.19
2018-11-20T02:26:05.762Z,68.40
2018-11-20T02:29:12.720Z,68.45
2018-11-20T02:32:00.088Z,69.00
2018-11-20T02:34:47.366Z,69.11
2018-11-20T02:37:47.713Z,69.54
2018-11-20T02:40:39.130Z,69.54
2018-11-20T02:43:26.597Z,69.91
2018-11-20T02:46:08.018Z,70.43
2018-11-20T02:48:53.500Z,70.54
2018-11-20T02:51:40.383Z,70.54
2018-11-20T02:54:27.704Z,70.54
2018-11-20T02:57:12.015Z,70.83
2018-11-20T02:59:57.976Z,70.83
2018-11-20T03:02:58.778Z,71.44
2018-11-20T03:06:02.690Z,71.44
2018-11-20T03:08:46.756Z,71.94
2018-11-20T03:11:37.999Z,71.84
2018-11-20T03:14:29.518Z,71.78
2018-11-20T03:17:23.877Z,72.39
2018-11-20T03:20:10.919Z,72.39
2018-11-20T03:23:11.610Z,72.67
2018-11-20T03:26:01.852Z,72.67
2018-11-20T03:28:53.506Z,73.34
2018-11-20T03:31:51.459Z,73.45
2018-11-20T03:34:48.863Z,73.38
2018-11-20T03:37:38.429Z,73.37
2018-11-20T03:40:36.418Z,73.55
2018-11-20T03:43:25.308Z,73.77
2018-11-20T03:46:05.781Z,73.58
2018-11-20T03:49:03.557Z,73.78
2018-11-20T03:52:06.922Z,74.13
2018-11-20T03:54:54.561Z,73.71
2018-11-20T03:57:49.119Z,74.02
2018-11-20T04:00:36.500Z,74.04
2018-11-20T04:03:30.959Z,74.63
2018-11-20T04:06:25.921Z,74.21
2018-11-20T04:09:32.719Z,74.48
2018-11-20T04:12:15.100Z,74.45
2018-11-20T04:15:02.332Z,74.19
2018-11-20T04:17:53.424Z,74.13
2018-11-20T04:20:44.625Z,74.24
2018-11-20T04:23:42.303Z,74.58
2018-11-20T04:26:46.131Z,74.36
2018-11-20T04:29:23.720Z,74.38
2018-11-20T04:32:16.306Z,74.77
2018-11-20T04:35:09.893Z,75.23
2018-11-20T04:37:56.998Z,74.98
2018-11-20T04:40:51.636Z,74.60
2018-11-20T04:43:38.572Z,74.74
2018-11-20T04:46:42.350Z,75.41
2018-11-20T04:49:29.437Z,75.41
2018-11-20T04:52:24.121Z,75.50
2018-11-20T04:55:24.900Z,75.47
2018-11-20T04:58:16.307Z,75.62
2018-11-20T05:01:10.980Z,75.98
2018-11-20T05:03:59.503Z,75.31
2018-11-20T05:06:50.964Z,75.27
2018-11-20T05:09:51.870Z,75.77
2018-11-20T05:12:52.472Z,75.86
2018-11-20T05:15:41.015Z,75.73
2018-11-20T05:18:28.761Z,76.23
2018-11-20T05:21:26.286Z,76.58
2018-11-20T05:24:33.320Z,76.91
2018-11-20T05:27:10.439Z,76.80
2018-11-20T05:29:54.479Z,77.10
2018-11-20T05:32:51.901Z,77.67
2018-11-20T05:35:38.278Z,77.67
2018-11-20T05:38:39.414Z,77.83
2018-11-20T05:41:26.802Z,78.13
2018-11-20T05:44:14.028Z,77.99
2018-11-20T05:47:06.081Z,78.00
2018-11-20T05:49:53.196Z,78.79
2018-11-20T05:52:41.737Z,78.79
2018-11-20T05:55:39.313Z,78.44
2018-11-20T05:58:30.780Z,78.83
2018-11-20T06:01:25.109Z,78.92
2018-11-20T06:04:16.177Z,78.92
2018-11-20T06:07:04.864Z,79.12
2018-11-20T06:09:51.893Z,79.12
2018-11-20T06:12:46.474Z,79.14
2018-11-20T06:15:33.606Z,79.49
2018-11-20T06:18:12.945Z,79.36
2018-11-20T06:20:58.038Z,79.48
2018-11-20T06:23:52.771Z,79.69
2018-11-20T06:26:41.315Z,79.86
2018-11-20T06:29:28.519Z,80.43
2018-11-20T06:32:15.746Z,80.63
2018-11-20T06:35:07.626Z,80.63
2018-11-20T06:37:46.435Z,80.48
2018-11-20T06:40:33.500Z,81.02
2018-11-20T06:43:21.947Z,80.64
2018-11-20T06:46:25.563Z,81.33
2018-11-20T06:49:12.813Z,81.36
2018-11-20T06:52:07.196Z,81.42
2018-11-20T06:54:55.566Z,81.42
2018-11-20T06:57:59.401Z,81.72
2018-11-20T07:00:48.659Z,82.00
2018-11-20T07:03:36.164Z,82.00
2018-11-20T07:06:21.697Z,82.17
2018-11-20T07:09:13.280Z,81.77
2018-11-20T07:12:00.730Z,82.45
2018-11-20T07:14:49.458Z,82.79
2018-11-20T07:17:40.182Z,82.63
2018-11-20T07:20:34.639Z,82.57
2018-11-20T07:23:23.399Z,82.34
2018-11-20T07:26:10.644Z,82.91
2018-11-20T07:28:55.580Z,82.48
2018-11-20T07:31:44.116Z,83.01
2018-11-20T07:34:26.498Z,83.01
2018-11-20T07:37:07.023Z,82.50
2018-11-20T07:39:55.386Z,83.35
2018-11-20T07:42:53.580Z,83.27
2018-11-20T07:46:00.246Z,82.74
2018-11-20T07:48:51.454Z,82.87
2018-11-20T07:51:47.176Z,82.53
2018-11-20T07:54:44.655Z,83.11
2018-11-20T07:57:42.094Z,83.20
2018-11-20T08:00:29.345Z,82.76
2018-11-20T08:03:10.481Z,82.40
2018-11-20T08:05:50.912Z,82.53
2018-11-20T08:08:45.105Z,82.45
2018-11-20T08:11:32.334Z,82.47
2018-11-20T08:14:19.570Z,82.91
2018-11-20T08:17:26.493Z,82.72
2018-11-20T08:20:19.305Z,82.47
2018-11-20T08:23:03.971Z,82.41
2018-11-20T08:25:50.945Z,83.47
2018-11-20T08:28:48.539Z,82.68
2018-11-20T08:31:35.681Z,83.29
2018-11-20T08:34:22.673Z,83.19
2018-11-20T08:37:04.342Z,82.90
2018-11-20T08:39:56.099Z,82.90
2018-11-20T08:42:53.168Z,83.12
2018-11-20T08:45:56.901Z,82.94
2018-11-20T08:48:45.349Z,82.97
2018-11-20T08:51:33.818Z,83.10
2018-11-20T08:54:22.363Z,82.86
2018-11-20T08:57:13.575Z,82.88
2018-11-20T09:00:08.292Z,83.34
2018-11-20T09:03:02.999Z,83.14
2018-11-20T09:06:01.427Z,82.97
2018-11-20T09:08:45.055Z,83.23
2018-11-20T09:11:28.873Z,83.58
2018-11-20T09:14:23.257Z,83.49
2018-11-20T09:17:10.279Z,83.16
2018-11-20T09:19:57.214Z,82.77
2018-11-20T09:22:48.571Z,82.91
2018-11-20T09:25:41.933Z,82.68
2018-11-20T09:28:33.218Z,82.67
2018-11-20T09:31:32.218Z,82.92
2018-11-20T09:34:19.337Z,82.73
2018-11-20T09:37:06.130Z,82.85
2018-11-20T09:40:08.153Z,83.16
2018-11-20T09:43:08.835Z,82.69
2018-11-20T09:46:23.620Z,83.04
2018-11-20T09:49:18.108Z,82.68
2018-11-20T09:52:18.901Z,82.70
2018-11-20T09:55:08.214Z,82.43
2018-11-20T09:57:57.634Z,82.40
2018-11-20T10:00:49.383Z,82.44
2018-11-20T10:03:43.768Z,82.38
2018-11-20T10:06:47.477Z,82.63
2018-11-20T10:09:43.937Z,82.33
2018-11-20T10:12:47.612Z,82.30
2018-11-20T10:15:42.384Z,81.87
2018-11-20T10:18:29.528Z,81.96
2018-11-20T10:21:30.275Z,82.03
2018-11-20T10:24:18.653Z,81.70
2018-11-20T10:27:04.730Z,81.36
2018-11-20T10:29:51.728Z,81.47
2018-11-20T10:32:58.439Z,81.52
2018-11-20T10:36:32.397Z,81.47
2018-11-20T10:39:18.363Z,81.48
2018-11-20T10:42:04.904Z,81.54
2018-11-20T10:44:49.903Z,81.91
2018-11-20T10:47:43.428Z,81.45
2018-11-20T10:50:46.435Z,81.23
2018-11-20T10:53:28.386Z,81.77
2018-11-20T10:56:23.570Z,81.38
2018-11-20T10:59:09.511Z,81.04
2018-11-20T11:01:56.098Z,81.25
2018-11-20T11:04:42.699Z,81.32
2018-11-20T11:07:48.805Z,81.29
2018-11-20T11:10:42.592Z,81.04
2018-11-20T11:13:28.454Z,81.49
2018-11-20T11:16:24.679Z,81.02
2018-11-20T11:19:12.393Z,81.52
2018-11-20T11:22:18.462Z,81.22
2018-11-20T11:25:24.560Z,80.97
2018-11-20T11:28:18.597Z,81.20
2018-11-20T11:31:24.757Z,81.26
2018-11-20T11:34:18.287Z,81.11
2018-11-20T11:37:04.602Z,81.60
2018-11-20T11:39:50.508Z,80.96
2018-11-20T11:42:36.604Z,79.60
2018-11-20T11:45:24.931Z,77.14
2018-11-20T11:48:19.024Z,75.92
2018-11-20T11:50:55.986Z,75.32
2018-11-20T11:53:49.929Z,74.60
2018-11-20T11:56:42.926Z,73.58
2018-11-20T11:59:30.596Z,73.77
2018-11-20T12:05:03.521Z,73.33
2018-11-20T12:07:50.206Z,73.95
2018-11-20T12:10:36.272Z,73.76
2018-11-20T12:16:23.305Z,73.66
2018-11-20T12:19:09.849Z,73.73
2018-11-20T12:21:59.183Z,73.70
2018-11-20T12:24:42.479Z,73.58
2018-11-20T12:27:32.936Z,73.47
2018-11-20T12:30:18.769Z,73.93
2018-11-20T12:33:06.502Z,74.08
2018-11-20T12:35:54.556Z,74.37
2018-11-20T12:38:44.897Z,74.72
2018-11-20T12:41:28.624Z,75.32
2018-11-20T12:44:15.040Z,75.87
2018-11-20T12:47:14.992Z,76.63
2018-11-20T12:49:56.435Z,77.30
2018-11-20T12:52:56.678Z,78.09
2018-11-20T12:55:56.700Z,78.37
2018-11-20T12:58:40.412Z,79.59
2018-11-20T13:01:35.075Z,79.75
2018-11-20T13:04:21.498Z,79.85
2018-11-20T13:07:08.129Z,81.34
2018-11-20T13:09:54.693Z,81.41
2018-11-20T13:12:51.454Z,81.33
2018-11-20T13:15:31.441Z,81.33
2018-11-20T13:18:19.035Z,81.74
2018-11-20T13:21:15.980Z,82.02
2018-11-20T13:24:02.862Z,82.46
2018-11-20T13:26:42.906Z,82.42
2018-11-20T13:29:29.449Z,82.83
2018-11-20T13:32:19.609Z,83.07
2018-11-20T13:35:05.944Z,83.48
2018-11-20T13:37:42.552Z,83.57
2018-11-20T13:41:15.315Z,83.80
2018-11-20T13:44:08.752Z,84.18
2018-11-20T13:46:59.101Z,84.24
2018-11-20T13:49:45.453Z,84.52
2018-11-20T13:52:27.417Z,84.95
2018-11-20T13:55:17.839Z,85.35
2018-11-20T13:58:05.786Z,85.72
2018-11-20T14:01:11.811Z,85.35
2018-11-20T14:03:56.976Z,85.93
2018-11-20T14:06:44.831Z,85.04
2018-11-20T14:09:30.945Z,85.31
2018-11-20T14:12:18.673Z,85.58
2018-11-20T14:15:05.529Z,86.03
2018-11-20T14:17:51.983Z,85.78
2018-11-20T14:20:34.969Z,85.71
2018-11-20T14:23:28.463Z,85.41
2018-11-20T14:26:12.364Z,86.32
2018-11-20T14:28:51.088Z,86.15
2018-11-20T14:31:38.815Z,85.92
2018-11-20T14:34:35.779Z,85.93
2018-11-20T14:37:30.416Z,85.92
2018-11-20T14:40:15.991Z,86.46
2018-11-20T14:43:18.963Z,86.73
2018-11-20T14:46:21.944Z,86.82
2018-11-20T14:49:08.404Z,87.20
2018-11-20T14:52:02.304Z,87.49
2018-11-20T14:54:48.210Z,87.08
2018-11-20T14:57:35.867Z,86.56
2018-11-20T15:00:27.071Z,86.69
2018-11-20T15:03:13.070Z,86.58
2018-11-20T15:05:59.662Z,86.65
2018-11-20T15:08:46.391Z,86.72
2018-11-20T15:11:51.942Z,86.75
2018-11-20T15:14:38.312Z,86.87
2018-11-20T15:17:26.059Z,87.60
2018-11-20T15:20:16.999Z,88.23
2018-11-20T15:23:03.063Z,88.09
2018-11-20T15:25:53.308Z,88.04
2018-11-20T15:28:44.263Z,87.76
2018-11-20T15:31:30.534Z,87.40
2018-11-20T15:34:21.435Z,87.43
2018-11-20T15:37:09.169Z,87.94
2018-11-20T15:39:59.816Z,88.23
2018-11-20T15:42:45.876Z,88.37
2018-11-20T15:45:31.676Z,88.12
2018-11-20T15:48:15.488Z,87.63
2018-11-20T15:51:00.775Z,87.60
2018-11-20T15:54:06.334Z,87.98
2018-11-20T15:57:05.960Z,88.28
2018-11-20T15:59:48.778Z,87.88
2018-11-20T16:02:45.153Z,87.51
2018-11-20T16:05:31.523Z,87.64
2018-11-20T16:08:14.480Z,87.49
2018-11-20T16:11:00.359Z,88.02
2018-11-20T16:13:50.628Z,88.02
2018-11-20T16:16:38.274Z,88.07
2018-11-20T16:19:20.617Z,88.34
2018-11-20T16:22:26.466Z,88.39
2018-11-20T16:25:13.003Z,88.33
2018-11-20T16:27:59.708Z,88.26
2018-11-20T16:30:50.431Z,88.26
2018-11-20T16:33:49.870Z,88.03
2018-11-20T16:36:33.544Z,87.98
2018-11-20T16:39:27.374Z,88.16
2018-11-20T16:42:19.739Z,88.23
2018-11-20T16:45:16.828Z,88.37
2018-11-20T16:48:13.532Z,88.31
2018-11-20T16:51:04.104Z,88.17
2018-11-20T16:54:03.911Z,88.61
2018-11-20T16:57:03.350Z,88.65
2018-11-20T16:59:49.902Z,88.85
2018-11-20T17:02:40.643Z,88.55
2018-11-20T17:05:29.278Z,88.47
2018-11-20T17:08:23.020Z,88.56
2018-11-20T17:11:19.528Z,89.01
2018-11-20T17:14:13.078Z,88.83
2018-11-20T17:17:09.642Z,88.50
2018-11-20T17:19:57.371Z,88.54
2018-11-20T17:22:47.699Z,88.49
2018-11-20T17:25:47.282Z,89.05
2018-11-20T17:28:40.900Z,89.13
2018-11-20T17:31:34.129Z,89.47
2018-11-20T17:34:20.600Z,89.22
2018-11-20T17:37:01.474Z,89.38
2018-11-20T17:39:55.403Z,89.43
2018-11-20T17:42:57.931Z,89.34
2018-11-20T17:45:48.478Z,89.31
2018-11-20T17:48:45.949Z,89.07
2018-11-20T17:51:32.041Z,88.46
2018-11-20T17:54:22.177Z,88.29
2018-11-20T17:57:25.086Z,88.01
2018-11-20T18:00:13.200Z,87.99
2018-11-20T18:03:00.875Z,88.16
2018-11-20T18:05:56.857Z,89.09
2018-11-20T18:08:59.846Z,88.63
2018-11-20T18:11:47.717Z,88.43
2018-11-20T18:14:53.599Z,88.44
2018-11-20T18:17:35.256Z,88.30
2018-11-20T18:20:26.123Z,88.31
2018-11-20T18:23:12.545Z,88.54
2018-11-20T18:25:58.740Z,88.69
2018-11-20T18:28:45.129Z,89.01
2018-11-20T18:31:31.782Z,89.01
2018-11-20T18:34:25.721Z,88.84
2018-11-20T18:37:28.952Z,88.83
2018-11-20T18:40:32.046Z,88.83
2018-11-20T18:43:23.222Z,88.70
2018-11-20T18:46:09.670Z,88.47
2018-11-20T18:49:01.835Z,88.32
2018-11-20T18:51:50.080Z,88.39
2018-11-20T18:54:37.093Z,88.25
2018-11-20T18:57:27.707Z,88.42
2018-11-20T19:00:16.024Z,88.36
2018-11-20T19:03:02.562Z,88.34
2018-11-20T19:05:49.050Z,88.76
2018-11-20T19:08:43.132Z,88.63
2018-11-20T19:11:29.882Z,88.25
2018-11-20T19:14:23.486Z,88.31
2018-11-20T19:17:20.412Z,88.16
2018-11-20T19:20:14.179Z,88.26
2018-11-20T19:22:59.632Z,88.16
2018-11-20T19:25:46.640Z,88.03
2018-11-20T19:28:37.172Z,88.47
2018-11-20T19:31:41.401Z,88.28
2018-11-20T19:34:16.198Z,88.10
2018-11-20T19:37:12.384Z,88.26
2018-11-20T19:40:02.961Z,88.16
2018-11-20T19:43:08.965Z,88.22
2018-11-20T19:46:15.436Z,88.22
2018-11-20T19:49:03.520Z,88.50
2018-11-20T19:52:06.656Z,88.61
2018-11-20T19:54:53.056Z,88.85
2018-11-20T19:57:40.824Z,88.76
2018-11-20T20:00:28.592Z,88.73
2018-11-20T20:03:28.727Z,88.66
2018-11-20T20:06:24.210Z,88.71
2018-11-20T20:09:14.847Z,88.62
2018-11-20T20:12:01.594Z,88.57
2018-11-20T20:14:49.585Z,88.43
2018-11-20T20:17:38.022Z,88.50
2018-11-20T20:20:32.278Z,88.65
2018-11-20T20:23:37.166Z,88.37
2018-11-20T20:26:23.544Z,88.54
2018-11-20T20:29:10.454Z,88.54
2018-11-20T20:32:17.059Z,88.88
2018-11-20T20:35:03.945Z,88.43
2018-11-20T20:37:50.800Z,88.28
2018-11-20T20:40:36.950Z,87.91
2018-11-20T20:43:24.457Z,87.96
2018-11-20T20:46:18.771Z,88.24
2018-11-20T20:49:09.923Z,88.00
2018-11-20T20:51:56.413Z,87.68
2018-11-20T20:54:50.432Z,87.43
2018-11-20T20:57:44.123Z,87.43
2018-11-20T21:00:32.818Z,87.33
2018-11-20T21:03:26.282Z,87.21
2018-11-20T21:06:29.008Z,87.17
2018-11-20T21:09:16.775Z,87.11
2018-11-20T21:12:07.256Z,87.05
2018-11-20T21:14:55.357Z,87.19
2018-11-20T21:17:44.532Z,86.97
2018-11-20T21:20:30.817Z,87.33
2018-11-20T21:23:15.875Z,87.47
2018-11-20T21:26:09.880Z,87.54
2018-11-20T21:28:57.973Z,86.84
2018-11-20T21:31:44.265Z,87.30
2018-11-20T21:34:22.131Z,87.18
2018-11-20T21:37:21.986Z,87.08
2018-11-20T21:40:21.719Z,87.23
2018-11-20T21:43:09.506Z,86.86
2018-11-20T21:46:02.978Z,87.06
2018-11-20T21:48:50.411Z,87.27
2018-11-20T21:51:36.985Z,87.01
2018-11-20T21:54:24.903Z,87.29
2018-11-20T21:57:12.603Z,87.85
2018-11-20T22:00:19.264Z,87.85
2018-11-20T22:03:19.662Z,87.55
2018-11-20T22:06:18.603Z,87.61
2018-11-20T22:08:53.972Z,87.67
2018-11-20T22:11:53.312Z,87.70
2018-11-20T22:14:47.302Z,87.69
2018-11-20T22:17:33.445Z,87.99
2018-11-20T22:20:30.418Z,87.99
2018-11-20T22:23:24.301Z,88.23
2018-11-20T22:26:30.359Z,88.64
2018-11-20T22:29:22.990Z,88.56
2018-11-20T22:32:19.385Z,88.81
2018-11-20T22:35:03.813Z,88.91
2018-11-20T22:37:42.252Z,88.91
2018-11-20T22:40:32.708Z,88.75
2018-11-20T22:43:19.020Z,88.55
2018-11-20T22:46:05.445Z,88.49
2018-11-20T22:49:01.954Z,87.92
2018-11-20T22:51:48.987Z,87.92
2018-11-20T22:54:36.716Z,87.90
2018-11-20T22:57:23.282Z,87.90
2018-11-20T23:00:07.190Z,87.85
2018-11-20T23:02:50.056Z,87.85
2018-11-20T23:05:36.596Z,87.92
2018-11-20T23:08:05.388Z,87.63
2018-11-20T23:10:34.055Z,87.63
2018-11-20T23:13:03.022Z,87.69
2018-11-20T23:15:32.053Z,87.88
2018-11-20T23:18:00.647Z,87.36
2018-11-20T23:20:29.629Z,87.36
2018-11-20T23:22:58.622Z,87.30
2018-11-20T23:25:27.430Z,87.26
2018-11-20T23:27:56.151Z,87.18
2018-11-20T23:30:25.085Z,87.13
2018-11-20T23:32:53.775Z,87.13
2018-11-20T23:35:22.792Z,87.58
2018-11-20T23:37:51.584Z,87.21
2018-11-20T23:40:20.357Z,87.08
2018-11-20T23:42:49.265Z,87.08
2018-11-20T23:45:18.336Z,87.23
2018-11-20T23:47:46.883Z,87.19
2018-11-20T23:50:15.733Z,86.91
2018-11-20T23:52:44.599Z,87.55
2018-11-20T23:55:14.385Z,87.55
2018-11-20T23:57:43.020Z,86.98
